Potter, Nebraska
Current Conditions -  °F | °C
As of 12:15 PM on Thursday 23 Oct 2014 (Local Time) from KIBM Reporting Station
Clear Clear  
Wind Chill: 67°   Ceiling: Unl
Heat Index: 67°   Visibility: 10mi
Dew Point: 34°   Wind: 15mph
Humidity: 30%   Direction: 220°SW
Pressure: 30.11"   Gusts: NA
Location:  41.22°N, 103.32°W
Report Text: KIBM 231815Z AUTO 22013KT 10SM CLR 19/01 A3011 RMK AO2 T01920010
Loading
Personal Weather Stations






























Interactive Weather Map New forecast layout! Learn more

10-Day Weather Forecast

Advertisements
Track Severe Weather on mobile